createdAt,value
2023-10-29T00:00:12.344Z,56
2023-10-29T00:02:12.389Z,40
2023-10-29T00:04:12.385Z,80
2023-10-29T00:06:12.354Z,52
2023-10-29T00:09:12.401Z,54
2023-10-29T00:11:12.368Z,42
2023-10-29T00:14:12.354Z,74
2023-10-29T00:17:12.361Z,75
2023-10-29T00:19:12.366Z,83
2023-10-29T00:22:12.349Z,68
2023-10-29T00:25:12.320Z,65
2023-10-29T00:27:12.388Z,59
2023-10-29T00:30:12.346Z,77
2023-10-29T00:33:12.387Z,56
2023-10-29T00:35:12.350Z,106
2023-10-29T00:38:12.357Z,77
2023-10-29T00:41:12.320Z,53
2023-10-29T00:43:12.373Z,74
2023-10-29T00:46:12.368Z,98
2023-10-29T00:49:12.356Z,96
2023-10-29T00:51:12.340Z,90
2023-10-29T00:53:12.349Z,81
2023-10-29T00:56:12.324Z,95
2023-10-29T00:58:12.388Z,82
2023-10-29T01:01:12.366Z,132
2023-10-29T01:03:12.433Z,54
2023-10-29T01:06:12.557Z,75
2023-10-29T01:09:12.320Z,82
2023-10-29T01:11:12.357Z,92
2023-10-29T01:14:12.354Z,82
2023-10-29T01:17:12.334Z,75
2023-10-29T01:19:12.358Z,48
2023-10-29T01:22:12.354Z,98
2023-10-29T01:25:12.349Z,94
2023-10-29T01:28:12.380Z,53
2023-10-29T01:30:12.347Z,53
2023-10-29T01:33:12.377Z,46
2023-10-29T01:36:12.353Z,86
2023-10-29T01:38:12.359Z,99
2023-10-29T01:41:12.337Z,59
2023-10-29T01:43:12.711Z,81
2023-10-29T01:46:12.363Z,110
2023-10-29T01:49:12.385Z,78
2023-10-29T01:51:12.358Z,80
2023-10-29T01:54:12.385Z,67
2023-10-29T01:57:12.362Z,43
2023-10-29T02:00:12.402Z,146
2023-10-29T02:03:12.439Z,72
2023-10-29T02:05:12.370Z,70
2023-10-29T02:07:12.361Z,58
2023-10-29T02:10:12.367Z,70
2023-10-29T02:13:12.353Z,88
2023-10-29T02:16:12.404Z,76
2023-10-29T02:18:12.462Z,77
2023-10-29T02:21:12.393Z,75
2023-10-29T02:24:12.358Z,77
2023-10-29T02:26:12.368Z,56
2023-10-29T02:29:12.369Z,72
2023-10-29T02:32:12.390Z,61
2023-10-29T02:34:12.355Z,61
2023-10-29T02:37:12.369Z,63
2023-10-29T02:40:12.345Z,50
2023-10-29T02:42:12.420Z,54
2023-10-29T02:45:12.367Z,61
2023-10-29T02:48:12.497Z,87
2023-10-29T02:50:12.375Z,75
2023-10-29T02:53:12.390Z,99
2023-10-29T02:55:12.369Z,157
2023-10-29T02:57:12.354Z,84
2023-10-29T03:00:12.379Z,118
2023-10-29T03:03:12.450Z,69
2023-10-29T03:05:12.368Z,120
2023-10-29T03:08:12.375Z,75
2023-10-29T03:10:12.357Z,68
2023-10-29T03:12:12.368Z,73
2023-10-29T03:15:12.344Z,102
2023-10-29T03:17:12.359Z,56
2023-10-29T03:20:12.371Z,132
2023-10-29T03:23:12.370Z,75
2023-10-29T03:25:12.457Z,70
2023-10-29T03:28:12.365Z,62
2023-10-29T03:31:12.431Z,78
2023-10-29T03:34:12.418Z,62
2023-10-29T03:37:12.377Z,40
2023-10-29T03:40:12.365Z,61
2023-10-29T03:43:12.385Z,41
2023-10-29T03:45:12.390Z,38
2023-10-29T03:48:12.403Z,47
2023-10-29T03:50:12.366Z,51
2023-10-29T03:52:12.367Z,48
2023-10-29T03:55:12.375Z,177
2023-10-29T03:57:12.357Z,108
2023-10-29T04:00:12.379Z,48
2023-10-29T04:02:12.393Z,58
2023-10-29T04:05:12.584Z,81
2023-10-29T04:07:12.361Z,59
2023-10-29T04:09:12.384Z,90
2023-10-29T04:12:12.364Z,63
2023-10-29T04:15:12.413Z,69
2023-10-29T04:18:12.415Z,54
2023-10-29T04:20:12.383Z,64
2023-10-29T04:23:12.383Z,86
2023-10-29T04:26:12.454Z,47
2023-10-29T04:29:12.337Z,77
2023-10-29T04:31:12.400Z,35
2023-10-29T04:34:12.359Z,68
2023-10-29T04:36:12.355Z,57
2023-10-29T04:38:12.456Z,68
2023-10-29T04:41:12.367Z,61
2023-10-29T04:44:12.368Z,69
2023-10-29T04:46:12.824Z,48
2023-10-29T04:49:12.367Z,54
2023-10-29T04:51:12.394Z,56
2023-10-29T04:53:12.413Z,29
2023-10-29T04:56:12.408Z,36
2023-10-29T04:59:12.385Z,55
2023-10-29T05:02:12.378Z,59
2023-10-29T05:05:12.379Z,54
2023-10-29T05:08:12.407Z,53
2023-10-29T05:10:12.397Z,29
2023-10-29T05:13:12.379Z,35
2023-10-29T05:16:17.402Z,46
2023-10-29T05:18:12.425Z,73
2023-10-29T05:21:12.393Z,41
2023-10-29T05:23:12.397Z,52
2023-10-29T05:26:12.427Z,32
2023-10-29T05:28:12.385Z,21
2023-10-29T05:30:12.416Z,17
2023-10-29T05:33:12.487Z,85
2023-10-29T05:36:12.370Z,24
2023-10-29T05:38:12.358Z,16
2023-10-29T05:41:12.379Z,28
2023-10-29T05:43:12.384Z,36
2023-10-29T05:46:12.387Z,63
2023-10-29T05:48:12.459Z,34
2023-10-29T05:51:12.338Z,33
2023-10-29T05:53:12.376Z,21
2023-10-29T05:56:12.404Z,45
2023-10-29T05:58:12.406Z,53
2023-10-29T06:01:12.372Z,44
2023-10-29T06:04:12.534Z,45
2023-10-29T06:07:12.572Z,24
2023-10-29T06:09:21.266Z,29
2023-10-29T06:12:12.403Z,19
2023-10-29T06:15:12.480Z,17
2023-10-29T06:17:25.956Z,37
2023-10-29T06:20:12.376Z,54
2023-10-29T06:22:12.372Z,19
2023-10-29T06:24:12.432Z,46
2023-10-29T06:27:12.425Z,38
2023-10-29T06:29:12.388Z,35
2023-10-29T06:32:12.375Z,59
2023-10-29T06:34:12.369Z,30
2023-10-29T06:36:12.431Z,20
2023-10-29T06:39:12.467Z,23
2023-10-29T06:41:12.383Z,33
2023-10-29T06:43:12.393Z,36
2023-10-29T06:46:12.384Z,38
2023-10-29T06:48:12.512Z,27
2023-10-29T06:51:12.360Z,26
2023-10-29T06:54:12.349Z,34
2023-10-29T06:56:12.369Z,35
2023-10-29T06:59:12.346Z,27
2023-10-29T07:01:12.395Z,33
2023-10-29T07:04:12.481Z,15
2023-10-29T07:06:12.433Z,28
2023-10-29T07:09:12.373Z,15
2023-10-29T07:11:12.416Z,12
2023-10-29T07:14:12.387Z,17
2023-10-29T07:16:12.405Z,28
2023-10-29T07:19:12.475Z,28
2023-10-29T07:22:12.407Z,29
2023-10-29T07:24:12.414Z,67
2023-10-29T07:26:12.383Z,35
2023-10-29T07:29:12.390Z,23
2023-10-29T07:31:14.557Z,22
2023-10-29T07:33:12.542Z,27
2023-10-29T07:36:12.399Z,25
2023-10-29T07:39:12.479Z,33
2023-10-29T07:41:12.372Z,51
2023-10-29T07:43:12.416Z,56
2023-10-29T07:46:12.728Z,27
2023-10-29T07:49:12.530Z,54
2023-10-29T07:51:12.409Z,41
2023-10-29T07:54:12.411Z,38
2023-10-29T07:56:12.429Z,23
2023-10-29T07:59:12.450Z,30
2023-10-29T08:01:12.464Z,32
2023-10-29T08:04:12.436Z,56
2023-10-29T08:06:12.403Z,61
2023-10-29T08:08:12.456Z,32
2023-10-29T08:11:12.427Z,25
2023-10-29T08:13:12.472Z,24
2023-10-29T08:16:12.462Z,25
2023-10-29T08:18:12.440Z,29
2023-10-29T08:21:12.428Z,30
2023-10-29T08:23:12.459Z,35
2023-10-29T08:26:12.376Z,23
2023-10-29T08:28:12.402Z,47
2023-10-29T08:30:12.486Z,29
2023-10-29T08:33:12.527Z,46
2023-10-29T08:35:12.503Z,42
2023-10-29T08:38:12.400Z,24
2023-10-29T08:40:12.499Z,27
2023-10-29T08:43:12.410Z,35
2023-10-29T08:46:12.488Z,36
2023-10-29T08:49:12.376Z,42
2023-10-29T08:51:12.453Z,25
2023-10-29T08:54:12.439Z,23
2023-10-29T08:56:12.416Z,56
2023-10-29T08:58:12.388Z,48
2023-10-29T09:01:12.476Z,26
2023-10-29T09:04:12.460Z,26
2023-10-29T09:06:12.495Z,31
2023-10-29T09:09:12.431Z,21
2023-10-29T09:12:12.420Z,38
2023-10-29T09:15:12.444Z,25
2023-10-29T09:18:12.523Z,16
2023-10-29T09:21:12.424Z,51
2023-10-29T09:24:12.445Z,38
2023-10-29T09:26:12.403Z,32
2023-10-29T09:28:12.445Z,29
2023-10-29T09:30:12.470Z,28
2023-10-29T09:33:12.511Z,35
2023-10-29T09:36:12.414Z,25
2023-10-29T09:38:12.429Z,39
2023-10-29T09:41:12.422Z,22
2023-10-29T09:43:12.408Z,29
2023-10-29T09:46:12.437Z,27
2023-10-29T09:49:12.409Z,45
2023-10-29T09:51:12.434Z,20
2023-10-29T09:53:12.441Z,40
2023-10-29T09:56:12.407Z,16
2023-10-29T09:59:12.386Z,36
2023-10-29T10:01:12.448Z,27
2023-10-29T10:04:12.833Z,35
2023-10-29T10:07:12.408Z,27
2023-10-29T10:09:12.438Z,16
2023-10-29T10:11:12.415Z,41
2023-10-29T10:14:12.444Z,41
2023-10-29T10:17:12.470Z,53
2023-10-29T10:20:12.511Z,40
2023-10-29T10:22:12.442Z,42
2023-10-29T10:25:12.411Z,38
2023-10-29T10:28:12.434Z,39
2023-10-29T10:30:12.427Z,36
2023-10-29T10:32:12.461Z,22
2023-10-29T10:34:12.450Z,29
2023-10-29T10:36:12.452Z,35
2023-10-29T10:39:12.638Z,36
2023-10-29T10:42:12.434Z,58
2023-10-29T10:44:12.421Z,25
2023-10-29T10:46:12.487Z,32
2023-10-29T10:49:12.382Z,51
2023-10-29T10:51:12.567Z,25
2023-10-29T10:54:12.456Z,17
2023-10-29T10:57:12.449Z,27
2023-10-29T10:59:12.475Z,42
2023-10-29T11:02:12.416Z,21
2023-10-29T11:05:12.484Z,30
2023-10-29T11:08:12.418Z,64
2023-10-29T11:11:12.424Z,28
2023-10-29T11:13:12.478Z,32
2023-10-29T11:16:12.448Z,42
2023-10-29T11:19:12.429Z,42
2023-10-29T11:22:12.436Z,49
2023-10-29T11:25:12.483Z,61
2023-10-29T11:28:12.465Z,30
2023-10-29T11:31:12.404Z,32
2023-10-29T11:33:12.456Z,38
2023-10-29T11:36:12.440Z,33
2023-10-29T11:38:12.400Z,27
2023-10-29T11:41:12.413Z,27
2023-10-29T11:44:12.430Z,20
2023-10-29T11:47:12.431Z,17
2023-10-29T11:50:12.478Z,24
2023-10-29T11:52:12.474Z,22
2023-10-29T11:55:12.480Z,60
2023-10-29T11:58:12.401Z,43
2023-10-29T12:00:12.535Z,25
2023-10-29T12:03:12.484Z,32
2023-10-29T12:06:12.466Z,33
2023-10-29T12:08:12.437Z,27
2023-10-29T12:11:12.436Z,62
2023-10-29T12:13:12.526Z,38
2023-10-29T12:15:12.546Z,42
2023-10-29T12:18:12.466Z,32
2023-10-29T12:21:12.593Z,36
2023-10-29T12:24:12.465Z,30
2023-10-29T12:26:12.468Z,52
2023-10-29T12:29:12.420Z,41
2023-10-29T12:31:12.458Z,27
2023-10-29T12:33:12.470Z,21
2023-10-29T12:35:12.446Z,38
2023-10-29T12:38:12.419Z,36
2023-10-29T12:40:12.424Z,39
2023-10-29T12:43:12.441Z,22
2023-10-29T12:46:12.485Z,24
2023-10-29T12:49:12.433Z,45
2023-10-29T12:52:12.478Z,35
2023-10-29T12:54:12.521Z,55
2023-10-29T12:57:12.499Z,64
2023-10-29T12:59:12.438Z,40
2023-10-29T13:02:12.464Z,46
2023-10-29T13:04:12.430Z,44
2023-10-29T13:06:12.461Z,27
2023-10-29T13:08:12.461Z,64
2023-10-29T13:11:12.423Z,40
2023-10-29T13:13:12.514Z,70
2023-10-29T13:16:12.422Z,34
2023-10-29T13:18:12.514Z,31
2023-10-29T13:20:12.439Z,26
2023-10-29T13:23:12.473Z,33
2023-10-29T13:26:12.476Z,55
2023-10-29T13:29:12.429Z,42
2023-10-29T13:31:12.510Z,22
2023-10-29T13:34:12.445Z,34
2023-10-29T13:37:12.453Z,45
2023-10-29T13:39:12.551Z,29
2023-10-29T13:42:12.455Z,48
2023-10-29T13:44:12.453Z,50
2023-10-29T13:46:12.505Z,48
2023-10-29T13:49:12.501Z,27
2023-10-29T13:52:12.483Z,59
2023-10-29T13:55:12.452Z,43
2023-10-29T13:57:12.481Z,36
2023-10-29T13:59:12.475Z,23
2023-10-29T14:02:12.522Z,40
2023-10-29T14:05:12.425Z,41
2023-10-29T14:07:12.457Z,16
2023-10-29T14:09:12.528Z,37
2023-10-29T14:11:12.465Z,33
2023-10-29T14:13:12.502Z,25
2023-10-29T14:16:12.623Z,65
2023-10-29T14:18:12.504Z,17
2023-10-29T14:20:12.479Z,10
2023-10-29T14:23:12.444Z,9
2023-10-29T14:25:12.456Z,12
2023-10-29T14:28:12.456Z,28
2023-10-29T14:30:12.556Z,16
2023-10-29T14:33:12.511Z,13
2023-10-29T14:35:12.454Z,8
2023-10-29T14:37:12.496Z,17
2023-10-29T14:40:12.499Z,20
2023-10-29T14:43:21.665Z,10
2023-10-29T14:46:12.570Z,16
2023-10-29T14:48:12.499Z,20
2023-10-29T14:50:12.502Z,26
2023-10-29T14:53:12.465Z,17
2023-10-29T14:55:12.485Z,8
2023-10-29T14:58:12.473Z,27
2023-10-29T15:00:12.539Z,13
2023-10-29T15:03:12.611Z,26
2023-10-29T15:05:12.480Z,40
2023-10-29T15:08:12.478Z,31
2023-10-29T15:11:12.500Z,9
2023-10-29T15:14:12.416Z,15
2023-10-29T15:16:12.498Z,80
2023-10-29T15:19:18.901Z,21
2023-10-29T15:21:12.507Z,7
2023-10-29T15:23:12.510Z,31
2023-10-29T15:26:12.504Z,8
2023-10-29T15:29:12.445Z,18
2023-10-29T15:32:12.487Z,3
2023-10-29T15:34:12.450Z,22
2023-10-29T15:36:12.523Z,23
2023-10-29T15:39:12.502Z,6
2023-10-29T15:41:12.513Z,8
2023-10-29T15:44:12.515Z,11
2023-10-29T15:47:12.435Z,6
2023-10-29T15:49:12.538Z,23
2023-10-29T15:52:12.455Z,13
2023-10-29T15:54:12.485Z,26
2023-10-29T15:57:12.511Z,8
2023-10-29T15:59:12.768Z,3
2023-10-29T16:02:12.485Z,12
2023-10-29T16:04:12.511Z,10
2023-10-29T16:07:12.484Z,26
2023-10-29T16:10:12.469Z,9
2023-10-29T16:12:12.547Z,10
2023-10-29T16:15:12.445Z,29
2023-10-29T16:18:12.454Z,4
2023-10-29T16:20:12.455Z,13
2023-10-29T16:22:12.528Z,10
2023-10-29T16:25:12.459Z,11
2023-10-29T16:28:12.568Z,16
2023-10-29T16:31:12.447Z,30
2023-10-29T16:34:12.516Z,10
2023-10-29T16:37:12.464Z,17
2023-10-29T16:40:12.463Z,9
2023-10-29T16:44:12.490Z,6
2023-10-29T16:47:12.490Z,21
2023-10-29T16:49:12.478Z,25
2023-10-29T16:52:12.445Z,30
2023-10-29T16:54:12.485Z,12
2023-10-29T16:57:13.658Z,18
2023-10-29T17:00:12.495Z,7
2023-10-29T17:02:12.568Z,23
2023-10-29T17:05:12.506Z,15
2023-10-29T17:08:12.450Z,12
2023-10-29T17:10:12.495Z,35
2023-10-29T17:13:12.480Z,9
2023-10-29T17:15:12.518Z,9
2023-10-29T17:17:12.508Z,17
2023-10-29T17:20:12.499Z,4
2023-10-29T17:23:12.438Z,29
2023-10-29T17:25:12.529Z,4
2023-10-29T17:28:12.517Z,3
2023-10-29T17:31:12.455Z,9
2023-10-29T17:34:12.468Z,9
2023-10-29T17:36:12.527Z,5
2023-10-29T17:39:12.597Z,35
2023-10-29T17:42:12.572Z,7
2023-10-29T17:44:12.498Z,6
2023-10-29T17:47:12.469Z,7
2023-10-29T17:50:12.500Z,4
2023-10-29T17:52:12.439Z,25
2023-10-29T17:54:12.506Z,7
2023-10-29T17:56:12.731Z,17
2023-10-29T17:59:12.464Z,7
2023-10-29T18:02:12.519Z,7
2023-10-29T18:05:12.602Z,8
2023-10-29T18:08:12.471Z,18
2023-10-29T18:10:12.476Z,6
2023-10-29T18:13:12.490Z,13
2023-10-29T18:16:12.543Z,5
2023-10-29T18:18:12.584Z,72
2023-10-29T18:20:12.534Z,20
2023-10-29T18:23:12.637Z,8
2023-10-29T18:25:12.472Z,8
2023-10-29T18:27:12.482Z,19
2023-10-29T18:30:12.528Z,6
2023-10-29T18:33:12.869Z,18
2023-10-29T18:36:12.542Z,23
2023-10-29T18:38:12.502Z,9
2023-10-29T18:41:12.472Z,9
2023-10-29T18:44:12.486Z,20
2023-10-29T18:46:12.508Z,11
2023-10-29T18:49:12.474Z,10
2023-10-29T18:52:12.505Z,11
2023-10-29T18:54:12.562Z,18
2023-10-29T18:57:12.537Z,13
2023-10-29T19:00:12.545Z,17
2023-10-29T19:02:12.498Z,26
2023-10-29T19:05:12.472Z,30
2023-10-29T19:07:12.489Z,14
2023-10-29T19:10:12.467Z,36
2023-10-29T19:12:12.575Z,13
2023-10-29T19:15:12.504Z,29
2023-10-29T19:17:12.624Z,52
2023-10-29T19:20:12.479Z,21
2023-10-29T19:23:12.455Z,23
2023-10-29T19:25:12.680Z,16
2023-10-29T19:28:12.859Z,30
2023-10-29T19:31:23.889Z,19
2023-10-29T19:35:12.499Z,22
2023-10-29T19:37:12.481Z,14
2023-10-29T19:39:12.544Z,18
2023-10-29T19:42:12.931Z,13
2023-10-29T19:45:12.503Z,13
2023-10-29T19:47:12.539Z,15
2023-10-29T19:49:12.551Z,17
2023-10-29T19:52:12.488Z,32
2023-10-29T19:54:12.541Z,30
2023-10-29T19:57:12.504Z,27
2023-10-29T19:59:12.494Z,12
2023-10-29T20:02:12.482Z,13
2023-10-29T20:04:12.631Z,23
2023-10-29T20:07:12.506Z,13
2023-10-29T20:10:12.474Z,10
2023-10-29T20:12:12.476Z,27
2023-10-29T20:15:12.516Z,18
2023-10-29T20:18:12.511Z,27
2023-10-29T20:20:12.522Z,7
2023-10-29T20:23:12.516Z,17
2023-10-29T20:25:12.492Z,45
2023-10-29T20:28:12.476Z,29
2023-10-29T20:31:12.487Z,22
2023-10-29T20:34:12.500Z,15
2023-10-29T20:36:12.530Z,22
2023-10-29T20:38:12.649Z,16
2023-10-29T20:41:12.641Z,12
2023-10-29T20:44:12.708Z,22
2023-10-29T20:47:12.497Z,29
2023-10-29T20:49:12.491Z,38
2023-10-29T20:52:12.516Z,10
2023-10-29T20:55:12.536Z,15
2023-10-29T20:58:12.495Z,15
2023-10-29T21:00:12.498Z,28
2023-10-29T21:03:12.556Z,11
2023-10-29T21:06:14.097Z,32
2023-10-29T21:08:12.515Z,28
2023-10-29T21:10:12.548Z,12
2023-10-29T21:13:12.511Z,21
2023-10-29T21:15:12.530Z,31
2023-10-29T21:18:12.526Z,117
2023-10-29T21:20:12.530Z,21
2023-10-29T21:22:12.564Z,34
2023-10-29T21:25:12.540Z,22
2023-10-29T21:27:12.624Z,10
2023-10-29T21:30:12.493Z,53
2023-10-29T21:32:12.484Z,33
2023-10-29T21:34:12.572Z,21
2023-10-29T21:37:12.505Z,20
2023-10-29T21:39:12.540Z,30
2023-10-29T21:42:12.518Z,22
2023-10-29T21:44:12.491Z,28
2023-10-29T21:46:12.594Z,23
2023-10-29T21:49:12.477Z,25
2023-10-29T21:51:12.554Z,12
2023-10-29T21:54:12.573Z,14
2023-10-29T21:56:12.517Z,26
2023-10-29T21:59:12.489Z,37
2023-10-29T22:02:12.518Z,36
2023-10-29T22:04:12.583Z,83
2023-10-29T22:07:12.508Z,28
2023-10-29T22:09:12.540Z,22
2023-10-29T22:12:12.510Z,18
2023-10-29T22:14:12.514Z,16
2023-10-29T22:16:12.531Z,27
2023-10-29T22:19:12.498Z,28
2023-10-29T22:21:12.594Z,21
2023-10-29T22:24:12.557Z,16
2023-10-29T22:26:12.583Z,30
2023-10-29T22:29:12.479Z,27
2023-10-29T22:31:12.519Z,37
2023-10-29T22:34:12.555Z,36
2023-10-29T22:37:12.476Z,38
2023-10-29T22:39:12.526Z,26
2023-10-29T22:42:12.539Z,20
2023-10-29T22:45:12.564Z,39
2023-10-29T22:48:12.593Z,12
2023-10-29T22:50:12.535Z,44
2023-10-29T22:53:12.498Z,22
2023-10-29T22:56:12.518Z,28
2023-10-29T22:59:12.495Z,35
2023-10-29T23:01:12.980Z,25
2023-10-29T23:04:12.616Z,36
2023-10-29T23:07:12.493Z,24
2023-10-29T23:10:12.534Z,34
2023-10-29T23:12:12.608Z,37
2023-10-29T23:15:12.556Z,28
2023-10-29T23:18:12.568Z,35
2023-10-29T23:20:12.528Z,38
2023-10-29T23:23:12.503Z,30
2023-10-29T23:25:12.532Z,74
2023-10-29T23:28:16.905Z,28
2023-10-29T23:30:12.519Z,37
2023-10-29T23:32:12.513Z,14
2023-10-29T23:34:12.532Z,30
2023-10-29T23:37:12.548Z,30
2023-10-29T23:39:12.531Z,43
2023-10-29T23:42:12.544Z,37
2023-10-29T23:44:12.504Z,27
2023-10-29T23:47:12.502Z,42
2023-10-29T23:50:12.496Z,19
2023-10-29T23:52:12.493Z,47
2023-10-29T23:55:12.502Z,26
2023-10-29T23:57:12.639Z,35
2023-10-29T23:59:12.503Z,42
